createdAt,value
2023-01-19T00:04:00.116Z,16.95
2023-01-19T00:09:01.896Z,11.63
2023-01-19T00:14:03.688Z,13.93
2023-01-19T00:19:05.425Z,15.93
2023-01-19T00:24:07.254Z,11.57
2023-01-19T00:29:11.177Z,13.25
2023-01-19T00:34:12.854Z,14.85
2023-01-19T00:39:14.595Z,14.67
2023-01-19T00:44:16.269Z,14.03
2023-01-19T00:49:18.571Z,12.67
2023-01-19T00:54:20.349Z,13.30
2023-01-19T00:59:22.071Z,14.93
2023-01-19T01:04:23.777Z,15.25
2023-01-19T01:09:25.466Z,12.75
2023-01-19T01:14:27.269Z,17.90
2023-01-19T01:19:29.109Z,14.63
2023-01-19T01:24:30.962Z,13.50
2023-01-19T01:29:35.293Z,14.30
2023-01-19T01:34:37.062Z,14.13
2023-01-19T01:39:38.803Z,13.63
2023-01-19T01:44:53.163Z,13.57
2023-01-19T01:50:07.796Z,13.60
2023-01-19T01:55:10.773Z,14.13
2023-01-19T02:00:13.472Z,14.10
2023-01-19T02:05:25.966Z,12.20
2023-01-19T02:10:46.587Z,14.15
2023-01-19T02:15:50.996Z,11.53
2023-01-19T02:21:01.963Z,10.40
2023-01-19T02:26:04.825Z,11.60
2023-01-19T02:31:06.919Z,12.50
2023-01-19T02:36:11.903Z,10.67
2023-01-19T02:41:20.508Z,12.63
2023-01-19T02:46:22.472Z,10.33
2023-01-19T02:51:25.022Z,13.90
2023-01-19T02:57:00.122Z,10.10
2023-01-19T03:02:18.638Z,10.17
2023-01-19T03:07:31.329Z,9.77
2023-01-19T03:12:36.144Z,11.37
2023-01-19T03:17:38.644Z,9.87
2023-01-19T03:22:40.732Z,10.87
2023-01-19T03:27:45.802Z,9.87
2023-01-19T03:32:55.434Z,8.60
2023-01-19T03:38:01.078Z,9.13
2023-01-19T03:43:04.234Z,10.43
2023-01-19T03:48:06.806Z,8.87
2023-01-19T03:53:10.086Z,8.18
2023-01-19T03:58:12.211Z,7.53
2023-01-19T04:03:16.526Z,8.77
2023-01-19T04:08:18.251Z,7.13
2023-01-19T04:13:20.168Z,6.43
2023-01-19T04:18:21.860Z,9.73
2023-01-19T04:23:24.106Z,8.07
2023-01-19T04:28:26.789Z,6.03
2023-01-19T04:33:29.527Z,11.57
2023-01-19T04:38:31.416Z,11.53
2023-01-19T04:43:33.793Z,8.60
2023-01-19T04:48:35.607Z,12.70
2023-01-19T04:53:37.458Z,11.43
2023-01-19T04:58:39.563Z,7.87
2023-01-19T05:03:41.370Z,9.53
2023-01-19T05:08:45.255Z,7.90
2023-01-19T05:13:47.355Z,10.57
2023-01-19T05:18:49.131Z,9.03
2023-01-19T05:23:50.955Z,7.80
2023-01-19T05:28:53.254Z,11.00
2023-01-19T05:33:55.219Z,8.70
2023-01-19T05:38:59.569Z,9.90
2023-01-19T05:44:01.382Z,13.60
2023-01-19T05:49:05.030Z,12.80
2023-01-19T05:54:08.643Z,11.30
2023-01-19T05:59:11.040Z,9.53
2023-01-19T06:04:12.850Z,13.10
2023-01-19T06:09:14.994Z,12.03
2023-01-19T06:14:16.778Z,15.70
2023-01-19T06:19:18.934Z,11.47
2023-01-19T06:24:20.675Z,12.17
2023-01-19T06:29:23.086Z,16.57
2023-01-19T06:34:29.051Z,13.37
2023-01-19T06:39:31.202Z,17.73
2023-01-19T06:44:33.049Z,16.77
2023-01-19T06:49:34.845Z,14.40
2023-01-19T06:54:36.745Z,24.70
2023-01-19T06:59:39.824Z,19.90
2023-01-19T07:04:41.637Z,15.67
2023-01-19T07:09:43.460Z,17.07
2023-01-19T07:14:46.073Z,19.73
2023-01-19T07:19:47.995Z,17.00
2023-01-19T07:24:50.034Z,16.98
2023-01-19T07:30:04.920Z,15.13
2023-01-19T07:35:06.976Z,17.20
2023-01-19T07:40:09.298Z,15.83
2023-01-19T07:45:11.239Z,16.40
2023-01-19T07:50:14.031Z,16.73
2023-01-19T07:55:16.086Z,14.30
2023-01-19T08:00:24.952Z,17.42
2023-01-19T08:05:29.189Z,16.83
2023-01-19T08:10:31.330Z,16.88
2023-01-19T08:15:33.197Z,16.23
2023-01-19T08:20:35.194Z,15.07
2023-01-19T08:25:39.219Z,17.73
2023-01-19T08:30:43.542Z,19.45
2023-01-19T08:35:49.027Z,15.68
2023-01-19T08:40:52.189Z,15.32
2023-01-19T08:45:55.862Z,15.60
2023-01-19T08:50:57.652Z,18.65
2023-01-19T08:56:02.601Z,18.77
2023-01-19T09:01:04.706Z,15.32
2023-01-19T09:06:07.515Z,14.43
2023-01-19T09:11:13.801Z,15.77
2023-01-19T09:16:15.881Z,16.10
2023-01-19T09:21:18.571Z,16.80
2023-01-19T09:26:22.230Z,14.48
2023-01-19T09:31:24.226Z,17.67
2023-01-19T09:36:26.036Z,15.52
2023-01-19T09:41:27.962Z,20.52
2023-01-19T09:46:40.246Z,16.75
2023-01-19T09:51:46.331Z,15.27
2023-01-19T09:56:52.379Z,20.13
2023-01-19T10:02:06.860Z,18.58
2023-01-19T10:07:24.031Z,15.20
2023-01-19T10:12:51.741Z,16.35
2023-01-19T10:18:11.975Z,14.65
2023-01-19T10:23:36.220Z,15.50
2023-01-19T10:28:38.811Z,17.40
2023-01-19T10:33:40.534Z,16.30
2023-01-19T10:38:42.717Z,17.20
2023-01-19T10:43:46.209Z,16.95
2023-01-19T10:48:50.664Z,18.17
2023-01-19T10:54:01.732Z,16.85
2023-01-19T10:59:06.586Z,14.43
2023-01-19T11:04:22.365Z,18.92
2023-01-19T11:09:24.165Z,14.65
2023-01-19T11:14:30.936Z,18.77
2023-01-19T11:19:33.844Z,16.88
2023-01-19T11:24:38.244Z,15.35
2023-01-19T11:29:40.056Z,14.85
2023-01-19T11:34:41.773Z,14.02
2023-01-19T11:39:52.344Z,14.95
2023-01-19T11:45:17.634Z,13.45
2023-01-19T11:50:25.352Z,14.43
2023-01-19T11:55:58.039Z,13.52
2023-01-19T12:01:10.642Z,12.48
2023-01-19T12:06:18.230Z,14.25
2023-01-19T12:11:26.396Z,13.82
2023-01-19T12:16:33.682Z,12.63
2023-01-19T12:21:37.349Z,10.40
2023-01-19T12:26:51.530Z,12.23
2023-01-19T12:32:16.661Z,9.55
2023-01-19T12:37:42.327Z,10.27
2023-01-19T12:42:56.438Z,11.48
2023-01-19T12:47:58.755Z,11.43
2023-01-19T12:53:02.736Z,11.95
2023-01-19T12:58:12.825Z,11.23
2023-01-19T13:03:17.581Z,15.55
2023-01-19T13:08:21.359Z,9.80
2023-01-19T13:13:37.550Z,12.15
2023-01-19T13:18:41.803Z,11.35
2023-01-19T13:23:49.951Z,11.88
2023-01-19T13:29:30.684Z,10.48
2023-01-19T13:34:57.237Z,11.93
2023-01-19T13:39:59.900Z,11.13
2023-01-19T13:45:26.314Z,13.48
2023-01-19T13:50:32.220Z,10.65
2023-01-19T13:55:34.061Z,10.13
2023-01-19T14:00:38.831Z,11.65
2023-01-19T14:05:42.457Z,12.38
2023-01-19T14:11:02.654Z,9.90
2023-01-19T14:16:23.877Z,10.60
2023-01-19T14:21:25.675Z,12.43
2023-01-19T14:26:52.812Z,10.82
2023-01-19T14:32:00.938Z,9.10
2023-01-19T14:37:04.925Z,12.02
2023-01-19T14:47:30.828Z,9.75
2023-01-19T14:52:39.257Z,11.90
2023-01-19T14:57:41.099Z,11.95
2023-01-19T15:02:43.408Z,9.88
2023-01-19T15:07:47.576Z,11.93
2023-01-19T15:12:51.998Z,12.00
2023-01-19T15:17:56.129Z,10.88
2023-01-19T15:22:58.399Z,11.07
2023-01-19T15:28:04.258Z,9.65
2023-01-19T15:33:06.336Z,10.48
2023-01-19T15:38:08.617Z,9.13
2023-01-19T15:43:11.416Z,9.57
2023-01-19T15:48:27.505Z,9.68
2023-01-19T15:53:30.657Z,10.02
2023-01-19T15:58:32.489Z,9.82
2023-01-19T16:03:34.322Z,11.65
2023-01-19T16:08:37.611Z,8.43
2023-01-19T16:13:40.193Z,11.75
2023-01-19T16:18:41.984Z,10.55
2023-01-19T16:23:45.766Z,11.73
2023-01-19T16:28:47.864Z,13.85
2023-01-19T16:33:49.784Z,8.95
2023-01-19T16:38:52.260Z,10.65
2023-01-19T16:43:55.568Z,11.10
2023-01-19T16:49:06.842Z,11.60
2023-01-19T16:54:12.290Z,12.70
2023-01-19T16:59:16.361Z,11.95
2023-01-19T17:04:22.029Z,15.38
2023-01-19T17:09:23.841Z,11.45
2023-01-19T17:14:25.817Z,11.90
2023-01-19T17:19:31.740Z,12.95
2023-01-19T17:24:33.682Z,12.18
2023-01-19T17:29:35.663Z,13.70
2023-01-19T17:34:37.594Z,15.18
2023-01-19T17:39:39.519Z,13.63
2023-01-19T17:44:42.489Z,10.70
2023-01-19T17:49:44.373Z,13.82
2023-01-19T17:54:46.746Z,11.35
2023-01-19T17:59:48.558Z,16.25
2023-01-19T18:04:53.885Z,11.98
2023-01-19T18:09:58.247Z,12.98
2023-01-19T18:15:00.899Z,12.10
2023-01-19T18:20:02.899Z,12.43
2023-01-19T18:25:05.252Z,11.43
2023-01-19T18:30:07.963Z,11.73
2023-01-19T18:35:09.968Z,12.25
2023-01-19T18:40:12.481Z,11.07
2023-01-19T18:45:15.258Z,11.70
2023-01-19T18:50:20.089Z,11.73
2023-01-19T18:55:22.529Z,13.00
2023-01-19T19:00:24.519Z,11.73
2023-01-19T19:05:26.550Z,12.18
2023-01-19T19:10:28.543Z,12.82
2023-01-19T19:15:35.134Z,11.75
2023-01-19T19:20:40.503Z,12.10
2023-01-19T19:25:42.760Z,12.57
2023-01-19T19:30:44.802Z,11.98
2023-01-19T19:35:50.544Z,12.00
2023-01-19T19:40:54.812Z,14.38
2023-01-19T19:46:01.875Z,15.13
2023-01-19T19:51:17.512Z,15.65
2023-01-19T19:56:22.423Z,15.73
2023-01-19T20:01:29.447Z,14.20
2023-01-19T20:06:37.591Z,16.33
2023-01-19T20:11:40.515Z,19.30
2023-01-19T20:16:42.658Z,14.65
2023-01-19T20:21:44.710Z,16.33
2023-01-19T20:26:50.417Z,18.00
2023-01-19T20:31:57.567Z,14.48
2023-01-19T20:36:59.713Z,14.85
2023-01-19T20:42:02.429Z,16.70
2023-01-19T20:47:06.670Z,17.15
2023-01-19T20:52:08.840Z,15.30
2023-01-19T20:57:10.934Z,18.23
2023-01-19T21:02:15.183Z,16.52
2023-01-19T21:07:17.286Z,16.75
2023-01-19T21:12:21.570Z,16.65
2023-01-19T21:17:23.662Z,20.92
2023-01-19T21:22:26.045Z,14.80
2023-01-19T21:27:28.060Z,15.80
2023-01-19T21:32:30.140Z,15.45
2023-01-19T21:37:32.348Z,17.10
2023-01-19T21:42:34.380Z,14.63
2023-01-19T21:47:36.915Z,18.00
2023-01-19T21:52:41.713Z,18.00
2023-01-19T21:57:43.919Z,13.50
2023-01-19T22:02:58.524Z,14.77
2023-01-19T22:08:06.588Z,17.63
2023-01-19T22:13:12.522Z,17.08
2023-01-19T22:18:15.719Z,16.48
2023-01-19T22:23:17.826Z,16.15
2023-01-19T22:28:19.837Z,16.60
2023-01-19T22:33:21.843Z,15.30
2023-01-19T22:38:23.773Z,14.93
2023-01-19T22:43:25.858Z,14.82
2023-01-19T22:48:28.082Z,16.98
2023-01-19T22:53:34.374Z,17.20
2023-01-19T22:58:37.397Z,16.13
2023-01-19T23:03:41.019Z,15.55
2023-01-19T23:08:43.997Z,14.70
2023-01-19T23:13:46.611Z,15.35
2023-01-19T23:18:52.825Z,17.13
2023-01-19T23:24:00.997Z,14.30
2023-01-19T23:29:04.000Z,16.33
2023-01-19T23:34:08.863Z,26.10
2023-01-19T23:39:17.292Z,15.55
2023-01-19T23:44:22.115Z,17.00
2023-01-19T23:49:25.130Z,19.02
2023-01-19T23:54:27.223Z,15.48
2023-01-19T23:59:29.102Z,17.70
